createdAt,value
2023-03-04T00:00:50.390Z,100466.41
2023-03-04T00:03:18.089Z,100472.34
2023-03-04T00:05:47.247Z,100480.34
2023-03-04T00:08:14.977Z,100466.50
2023-03-04T00:10:43.884Z,100472.69
2023-03-04T00:13:11.667Z,100473.66
2023-03-04T00:15:40.914Z,100487.44
2023-03-04T00:18:08.798Z,100481.56
2023-03-04T00:20:36.601Z,100477.47
2023-03-04T00:23:04.278Z,100481.78
2023-03-04T00:25:33.608Z,100476.75
2023-03-04T00:28:01.524Z,100473.41
2023-03-04T00:30:29.188Z,100477.00
2023-03-04T00:32:58.177Z,100482.25
2023-03-04T00:35:25.868Z,100473.69
2023-03-04T00:37:53.589Z,100475.47
2023-03-04T00:40:21.528Z,100478.03
2023-03-04T00:42:49.205Z,100484.25
2023-03-04T00:45:16.972Z,100474.97
2023-03-04T00:47:44.680Z,100484.41
2023-03-04T00:50:13.985Z,100483.63
2023-03-04T00:52:41.661Z,100471.53
2023-03-04T00:55:10.199Z,100473.25
2023-03-04T00:57:37.933Z,100484.56
2023-03-04T01:00:06.299Z,100472.44
2023-03-04T01:02:34.033Z,100475.19
2023-03-04T01:05:01.648Z,100477.00
2023-03-04T01:07:30.648Z,100466.88
2023-03-04T01:09:58.276Z,100478.22
2023-03-04T01:12:25.993Z,100457.59
2023-03-04T01:14:53.664Z,100474.75
2023-03-04T01:17:21.387Z,100463.59
2023-03-04T01:19:49.101Z,100463.66
2023-03-04T01:22:18.995Z,100453.25
2023-03-04T01:24:48.932Z,100449.19
2023-03-04T01:27:16.643Z,100446.88
2023-03-04T01:29:44.305Z,100446.81
2023-03-04T01:32:12.084Z,100441.69
2023-03-04T01:34:39.853Z,100446.97
2023-03-04T01:37:07.517Z,100448.88
2023-03-04T01:39:35.175Z,100442.00
2023-03-04T01:42:04.259Z,100450.50
2023-03-04T01:44:31.950Z,100450.47
2023-03-04T01:46:59.744Z,100460.91
2023-03-04T01:49:27.440Z,100448.13
2023-03-04T01:51:55.851Z,100450.06
2023-03-04T01:54:23.986Z,100444.78
2023-03-04T01:56:52.820Z,100448.44
2023-03-04T01:59:22.932Z,100448.25
2023-03-04T02:01:51.565Z,100442.47
2023-03-04T02:04:20.846Z,100450.19
2023-03-04T02:06:49.279Z,100460.72
2023-03-04T02:09:17.483Z,100438.47
2023-03-04T02:11:45.593Z,100453.00
2023-03-04T02:14:13.544Z,100455.78
2023-03-04T02:16:42.632Z,100467.97
2023-03-04T02:19:15.012Z,100461.75
2023-03-04T02:21:42.713Z,100463.38
2023-03-04T02:24:15.292Z,100462.63
2023-03-04T02:26:44.567Z,100474.56
2023-03-04T02:29:14.017Z,100465.97
2023-03-04T02:31:43.116Z,100481.22
2023-03-04T02:34:13.658Z,100466.00
2023-03-04T02:36:41.459Z,100479.09
2023-03-04T02:39:12.806Z,100461.41
2023-03-04T02:41:40.940Z,100480.25
2023-03-04T02:44:16.957Z,100486.59
2023-03-04T02:46:44.709Z,100482.53
2023-03-04T02:49:12.421Z,100486.03
2023-03-04T02:51:40.184Z,100482.69
2023-03-04T02:54:15.984Z,100508.50
2023-03-04T02:56:46.025Z,100508.56
2023-03-04T02:59:15.074Z,100501.03
2023-03-04T03:01:43.073Z,100505.41
2023-03-04T03:04:10.810Z,100483.97
2023-03-04T03:06:38.449Z,100487.56
2023-03-04T03:09:06.461Z,100486.84
2023-03-04T03:11:34.212Z,100486.97
2023-03-04T03:14:01.836Z,100498.94
2023-03-04T03:16:30.844Z,100486.31
2023-03-04T03:18:58.540Z,100478.75
2023-03-04T03:21:26.321Z,100486.44
2023-03-04T03:23:54.085Z,100484.06
2023-03-04T03:26:21.767Z,100474.72
2023-03-04T03:28:49.424Z,100480.88
2023-03-04T03:31:17.184Z,100473.38
2023-03-04T03:33:46.300Z,100474.22
2023-03-04T03:36:14.015Z,100479.50
2023-03-04T03:38:41.715Z,100482.88
2023-03-04T03:41:09.627Z,100482.81
2023-03-04T03:43:37.269Z,100477.03
2023-03-04T03:46:05.005Z,100483.13
2023-03-04T03:48:32.742Z,100476.47
2023-03-04T03:51:01.799Z,100478.31
2023-03-04T03:53:29.420Z,100479.97
2023-03-04T03:55:57.041Z,100470.66
2023-03-04T03:58:26.809Z,100478.47
2023-03-04T04:00:56.490Z,100481.03
2023-03-04T04:03:25.982Z,100476.94
2023-03-04T04:05:53.824Z,100471.03
2023-03-04T04:08:23.003Z,100470.19
2023-03-04T04:10:50.669Z,100504.28
2023-03-04T04:13:18.273Z,100484.69
2023-03-04T04:15:45.941Z,100487.34
2023-03-04T04:18:13.558Z,100485.78
2023-03-04T04:20:41.250Z,100515.78
2023-03-04T04:23:08.900Z,100495.22
2023-03-04T04:25:37.997Z,100503.81
2023-03-04T04:28:05.687Z,100492.84
2023-03-04T04:30:33.348Z,100499.81
2023-03-04T04:33:01.916Z,100497.22
2023-03-04T04:35:29.703Z,100498.94
2023-03-04T04:37:57.440Z,100501.56
2023-03-04T04:40:25.303Z,100508.50
2023-03-04T04:42:56.424Z,100513.63
2023-03-04T04:45:26.867Z,100504.31
2023-03-04T04:47:57.245Z,100515.44
2023-03-04T04:50:25.323Z,100504.47
2023-03-04T04:52:52.994Z,100513.06
2023-03-04T04:55:20.748Z,100521.63
2023-03-04T04:57:48.414Z,100523.34
2023-03-04T05:00:19.031Z,100515.66
2023-03-04T05:02:46.696Z,100515.81
2023-03-04T05:05:14.519Z,100511.69
2023-03-04T05:07:42.175Z,100512.63
2023-03-04T05:10:10.765Z,100526.31
2023-03-04T05:12:38.557Z,100519.50
2023-03-04T05:15:06.643Z,100514.44
2023-03-04T05:17:35.751Z,100520.41
2023-03-04T05:20:07.412Z,100511.84
2023-03-04T05:22:35.161Z,100523.75
2023-03-04T05:25:03.193Z,100522.13
2023-03-04T05:27:31.029Z,100529.75
2023-03-04T05:30:00.836Z,100532.31
2023-03-04T05:32:28.623Z,100531.50
2023-03-04T05:34:57.709Z,100541.84
2023-03-04T05:37:25.408Z,100541.81
2023-03-04T05:39:53.075Z,100554.66
2023-03-04T05:42:20.776Z,100554.78
2023-03-04T05:44:48.523Z,100557.25
2023-03-04T05:47:16.152Z,100554.84
2023-03-04T05:49:44.610Z,100557.38
2023-03-04T05:52:13.699Z,100560.78
2023-03-04T05:54:41.361Z,100566.78
2023-03-04T05:57:09.018Z,100566.78
2023-03-04T05:59:39.066Z,100571.91
2023-03-04T06:02:09.170Z,100567.75
2023-03-04T06:04:36.796Z,100576.31
2023-03-04T06:07:04.405Z,100578.91
2023-03-04T06:09:33.401Z,100577.22
2023-03-04T06:12:01.036Z,100577.19
2023-03-04T06:14:28.795Z,100574.63
2023-03-04T06:16:56.525Z,100576.31
2023-03-04T06:19:24.201Z,100584.88
2023-03-04T06:21:51.817Z,100574.66
2023-03-04T06:24:19.594Z,100588.31
2023-03-04T06:26:48.706Z,100584.91
2023-03-04T06:29:16.363Z,100591.66
2023-03-04T06:31:44.070Z,100585.78
2023-03-04T06:34:12.741Z,100588.31
2023-03-04T06:36:40.435Z,100595.97
2023-03-04T06:39:08.336Z,100595.16
2023-03-04T06:41:36.113Z,100596.72
2023-03-04T06:44:05.191Z,100598.34
2023-03-04T06:46:34.143Z,100597.28
2023-03-04T06:49:01.931Z,100602.34
2023-03-04T06:51:30.487Z,100597.16
2023-03-04T06:53:58.204Z,100597.81
2023-03-04T06:56:25.899Z,100614.00
2023-03-04T06:58:53.598Z,100609.66
2023-03-04T07:01:23.909Z,100617.28
2023-03-04T07:03:52.180Z,100619.72
2023-03-04T07:06:21.080Z,100614.59
2023-03-04T07:08:48.985Z,100612.91
2023-03-04T07:11:17.115Z,100616.31
2023-03-04T07:13:44.962Z,100605.19
2023-03-04T07:16:13.205Z,100615.31
2023-03-04T07:18:42.393Z,100614.47
2023-03-04T07:21:10.067Z,100616.91
2023-03-04T07:23:38.087Z,100627.19
2023-03-04T07:26:06.197Z,100620.28
2023-03-04T07:28:33.840Z,100633.09
2023-03-04T07:31:09.074Z,100630.47
2023-03-04T07:33:36.679Z,100632.13
2023-03-04T07:36:06.014Z,100649.31
2023-03-04T07:38:33.920Z,100641.66
2023-03-04T07:41:02.035Z,100659.41
2023-03-04T07:43:29.980Z,100639.59
2023-03-04T07:46:01.919Z,100648.84
2023-03-04T07:48:29.552Z,100646.94
2023-03-04T07:51:09.751Z,100658.56
2023-03-04T07:53:38.553Z,100664.59
2023-03-04T07:56:07.413Z,100655.13
2023-03-04T07:58:35.068Z,100678.72
2023-03-04T08:01:02.743Z,100652.00
2023-03-04T08:03:30.798Z,100655.31
2023-03-04T08:05:58.513Z,100653.44
2023-03-04T08:08:27.501Z,100663.75
2023-03-04T08:10:55.154Z,100671.25
2023-03-04T08:13:25.557Z,100657.50
2023-03-04T08:15:53.671Z,100659.28
2023-03-04T08:18:21.364Z,100657.53
2023-03-04T08:20:49.067Z,100661.88
2023-03-04T08:23:16.675Z,100671.19
2023-03-04T08:25:45.808Z,100664.31
2023-03-04T08:28:14.099Z,100666.84
2023-03-04T08:30:42.058Z,100664.19
2023-03-04T08:33:10.662Z,100666.69
2023-03-04T08:35:38.966Z,100672.59
2023-03-04T08:38:06.894Z,100672.47
2023-03-04T08:40:34.982Z,100673.41
2023-03-04T08:43:04.023Z,100680.16
2023-03-04T08:45:31.615Z,100668.09
2023-03-04T08:47:59.272Z,100662.63
2023-03-04T08:50:27.529Z,100666.88
2023-03-04T08:52:55.223Z,100669.38
2023-03-04T08:55:22.945Z,100674.41
2023-03-04T08:57:50.623Z,100665.63
2023-03-04T09:00:21.229Z,100677.59
2023-03-04T09:02:48.886Z,100677.59
2023-03-04T09:05:16.666Z,100673.16
2023-03-04T09:07:44.363Z,100684.19
2023-03-04T09:10:12.826Z,100673.84
2023-03-04T09:12:40.539Z,100683.09
2023-03-04T09:15:11.791Z,100680.44
2023-03-04T09:17:41.582Z,100674.75
2023-03-04T09:20:10.345Z,100686.97
2023-03-04T09:22:38.168Z,100679.09
2023-03-04T09:25:10.358Z,100689.22
2023-03-04T09:27:39.871Z,100683.78
2023-03-04T09:30:08.259Z,100692.44
2023-03-04T09:32:35.994Z,100688.53
2023-03-04T09:35:05.452Z,100684.09
2023-03-04T09:37:33.103Z,100686.72
2023-03-04T09:40:00.787Z,100685.88
2023-03-04T09:42:31.355Z,100687.94
2023-03-04T09:44:59.717Z,100683.34
2023-03-04T09:47:27.410Z,100686.72
2023-03-04T09:49:57.324Z,100678.44
2023-03-04T09:52:31.980Z,100684.13
2023-03-04T09:55:05.062Z,100691.16
2023-03-04T09:57:41.819Z,100704.13
2023-03-04T10:00:14.017Z,100683.97
2023-03-04T10:02:45.977Z,100692.97
2023-03-04T10:05:16.077Z,100691.00
2023-03-04T10:07:48.184Z,100702.88
2023-03-04T10:10:18.176Z,100681.75
2023-03-04T10:12:47.584Z,100682.19
2023-03-04T10:15:23.895Z,100688.56
2023-03-04T10:17:53.740Z,100678.81
2023-03-04T10:20:23.678Z,100686.53
2023-03-04T10:22:53.366Z,100687.03
2023-03-04T10:25:21.787Z,100677.75
2023-03-04T10:27:51.913Z,100675.38
2023-03-04T10:30:24.454Z,100693.63
2023-03-04T10:32:52.112Z,100694.16
2023-03-04T10:35:21.791Z,100688.06
2023-03-04T10:37:51.644Z,100689.41
2023-03-04T10:40:21.989Z,100696.81
2023-03-04T10:42:50.057Z,100701.09
2023-03-04T10:45:21.794Z,100703.13
2023-03-04T10:47:58.861Z,100697.88
2023-03-04T10:50:27.387Z,100696.44
2023-03-04T10:52:55.963Z,100691.91
2023-03-04T10:55:27.001Z,100689.91
2023-03-04T10:57:57.861Z,100684.28
2023-03-04T11:00:27.551Z,100674.41
2023-03-04T11:03:15.347Z,100670.03
2023-03-04T11:05:43.040Z,100673.38
2023-03-04T11:08:17.696Z,100666.06
2023-03-04T11:10:46.785Z,100677.69
2023-03-04T11:13:17.617Z,100668.97
2023-03-04T11:15:53.134Z,100675.31
2023-03-04T11:18:23.430Z,100671.72
2023-03-04T11:20:52.088Z,100674.28
2023-03-04T11:23:23.708Z,100664.75
2023-03-04T11:25:56.365Z,100668.94
2023-03-04T11:28:25.437Z,100666.25
2023-03-04T11:30:55.772Z,100674.66
2023-03-04T11:33:27.700Z,100663.19
2023-03-04T11:35:59.332Z,100649.22
2023-03-04T11:38:30.566Z,100654.88
2023-03-04T11:41:01.356Z,100655.13
2023-03-04T11:43:31.174Z,100658.31
2023-03-04T11:46:16.699Z,100667.00
2023-03-04T11:48:50.474Z,100666.94
2023-03-04T11:51:22.244Z,100675.06
2023-03-04T11:53:59.891Z,100674.88
2023-03-04T11:56:33.842Z,100669.66
2023-03-04T11:59:28.332Z,100664.66
2023-03-04T12:02:00.627Z,100670.03
2023-03-04T12:04:39.727Z,100672.75
2023-03-04T12:07:12.849Z,100660.66
2023-03-04T12:09:44.024Z,100681.19
2023-03-04T12:12:28.052Z,100683.13
2023-03-04T12:15:02.911Z,100679.72
2023-03-04T12:17:39.492Z,100674.78
2023-03-04T12:20:20.730Z,100685.13
2023-03-04T12:22:52.708Z,100685.22
2023-03-04T12:25:26.216Z,100687.19
2023-03-04T12:28:02.330Z,100691.09
2023-03-04T12:30:36.758Z,100693.19
2023-03-04T12:33:11.949Z,100697.06
2023-03-04T12:35:42.056Z,100707.72
2023-03-04T12:38:27.571Z,100710.03
2023-03-04T12:40:58.970Z,100706.69
2023-03-04T12:43:34.447Z,100716.06
2023-03-04T12:46:08.065Z,100712.94
2023-03-04T12:48:38.420Z,100726.13
2023-03-04T12:51:13.107Z,100716.03
2023-03-04T12:53:44.547Z,100717.78
2023-03-04T12:56:21.192Z,100714.59
2023-03-04T12:58:50.993Z,100718.00
2023-03-04T13:01:22.843Z,100723.84
2023-03-04T13:03:56.458Z,100723.84
2023-03-04T13:06:30.996Z,100715.50
2023-03-04T13:09:02.761Z,100724.50
2023-03-04T13:11:34.858Z,100712.28
2023-03-04T13:14:04.868Z,100718.63
2023-03-04T13:16:33.720Z,100717.78
2023-03-04T13:19:01.523Z,100707.47
2023-03-04T13:21:31.564Z,100710.28
2023-03-04T13:23:59.828Z,100711.50
2023-03-04T13:26:32.520Z,100707.06
2023-03-04T13:29:18.725Z,100703.59
2023-03-04T13:32:00.072Z,100705.63
2023-03-04T13:34:44.276Z,100709.00
2023-03-04T13:37:26.870Z,100697.13
2023-03-04T13:40:09.456Z,100707.13
2023-03-04T13:42:42.034Z,100700.94
2023-03-04T13:45:28.429Z,100699.84
2023-03-04T13:47:57.666Z,100696.31
2023-03-04T13:50:31.677Z,100696.09
2023-03-04T13:53:01.625Z,100692.44
2023-03-04T13:55:32.184Z,100689.56
2023-03-04T13:57:59.820Z,100688.53
2023-03-04T14:00:28.380Z,100690.88
2023-03-04T14:02:57.529Z,100676.09
2023-03-04T14:05:25.113Z,100676.94
2023-03-04T14:07:52.770Z,100678.44
2023-03-04T14:10:24.289Z,100672.19
2023-03-04T14:12:53.862Z,100671.38
2023-03-04T14:15:24.090Z,100667.03
2023-03-04T14:17:53.598Z,100669.59
2023-03-04T14:20:30.046Z,100672.84
2023-03-04T14:22:57.982Z,100664.03
2023-03-04T14:25:27.329Z,100668.13
2023-03-04T14:28:03.814Z,100665.25
2023-03-04T14:30:42.211Z,100652.16
2023-03-04T14:33:15.211Z,100642.41
2023-03-04T14:35:47.253Z,100642.03
2023-03-04T14:38:20.467Z,100628.06
2023-03-04T14:40:52.092Z,100632.34
2023-03-04T14:43:21.036Z,100624.34
2023-03-04T14:45:50.672Z,100626.81
2023-03-04T14:48:22.360Z,100629.31
2023-03-04T14:50:51.968Z,100623.25
2023-03-04T14:53:21.301Z,100617.28
2023-03-04T14:55:59.958Z,100611.38
2023-03-04T14:58:28.281Z,100609.03
2023-03-04T15:01:14.327Z,100603.28
2023-03-04T15:03:44.274Z,100604.31
2023-03-04T15:06:19.468Z,100601.66
2023-03-04T15:08:47.768Z,100600.94
2023-03-04T15:11:23.096Z,100595.66
2023-03-04T15:13:51.466Z,100598.03
2023-03-04T15:16:23.163Z,100593.13
2023-03-04T15:19:02.244Z,100593.06
2023-03-04T15:21:33.168Z,100588.75
2023-03-04T15:24:01.227Z,100606.06
2023-03-04T15:26:28.944Z,100599.84
2023-03-04T15:28:56.577Z,100593.66
2023-03-04T15:31:25.776Z,100596.25
2023-03-04T15:33:53.436Z,100597.84
2023-03-04T15:36:22.185Z,100592.56
2023-03-04T15:38:52.186Z,100590.75
2023-03-04T15:41:22.329Z,100594.75
2023-03-04T15:43:50.085Z,100584.34
2023-03-04T15:46:18.133Z,100579.06
2023-03-04T15:48:46.633Z,100575.56
2023-03-04T15:51:15.782Z,100581.63
2023-03-04T15:53:44.785Z,100581.56
2023-03-04T15:56:16.180Z,100578.16
2023-03-04T15:58:44.492Z,100591.84
2023-03-04T16:01:16.150Z,100591.06
2023-03-04T16:03:44.197Z,100585.28
2023-03-04T16:06:12.934Z,100595.59
2023-03-04T16:08:41.117Z,100602.56
2023-03-04T16:11:11.652Z,100589.00
2023-03-04T16:13:40.712Z,100595.28
2023-03-04T16:16:10.959Z,100591.91
2023-03-04T16:18:38.698Z,100590.09
2023-03-04T16:21:06.635Z,100591.22
2023-03-04T16:23:39.260Z,100598.31
2023-03-04T16:26:11.460Z,100595.84
2023-03-04T16:28:40.866Z,100596.16
2023-03-04T16:31:08.714Z,100595.47
2023-03-04T16:33:36.484Z,100591.13
2023-03-04T16:36:05.358Z,100601.56
2023-03-04T16:38:34.700Z,100604.22
2023-03-04T16:41:03.089Z,100602.72
2023-03-04T16:43:30.826Z,100596.84
2023-03-04T16:45:59.946Z,100595.31
2023-03-04T16:48:27.677Z,100598.06
2023-03-04T16:50:57.346Z,100591.53
2023-03-04T16:53:27.956Z,100596.88
2023-03-04T16:55:56.506Z,100586.75
2023-03-04T16:58:24.339Z,100598.22
2023-03-04T17:00:52.146Z,100607.75
2023-03-04T17:03:21.235Z,100595.75
2023-03-04T17:05:48.978Z,100600.19
2023-03-04T17:08:16.695Z,100602.94
2023-03-04T17:10:44.316Z,100595.31
2023-03-04T17:13:11.960Z,100585.28
2023-03-04T17:15:41.017Z,100590.56
2023-03-04T17:18:08.721Z,100585.69
2023-03-04T17:20:37.800Z,100584.16
2023-03-04T17:23:05.501Z,100586.91
2023-03-04T17:25:33.101Z,100590.72
2023-03-04T17:28:00.749Z,100590.09
2023-03-04T17:30:28.451Z,100585.91
2023-03-04T17:32:56.150Z,100584.38
2023-03-04T17:35:25.707Z,100591.34
2023-03-04T17:37:54.949Z,100581.91
2023-03-04T17:40:22.611Z,100585.47
2023-03-04T17:42:50.339Z,100583.84
2023-03-04T17:45:18.172Z,100584.06
2023-03-04T17:47:45.884Z,100585.13
2023-03-04T17:50:13.673Z,100585.31
2023-03-04T17:52:41.573Z,100576.09
2023-03-04T17:55:11.304Z,100572.91
2023-03-04T17:57:39.140Z,100563.47
2023-03-04T18:00:07.352Z,100569.63
2023-03-04T18:02:35.132Z,100572.28
2023-03-04T18:05:05.710Z,100569.69
2023-03-04T18:07:33.486Z,100568.94
2023-03-04T18:10:01.303Z,100563.03
2023-03-04T18:12:30.560Z,100571.84
2023-03-04T18:14:58.308Z,100568.50
2023-03-04T18:17:26.560Z,100568.44
2023-03-04T18:19:54.178Z,100569.53
2023-03-04T18:22:21.860Z,100561.16
2023-03-04T18:24:49.668Z,100555.19
2023-03-04T18:27:17.468Z,100558.94
2023-03-04T18:29:46.569Z,100547.59
2023-03-04T18:32:14.294Z,100550.31
2023-03-04T18:34:42.066Z,100549.50
2023-03-04T18:37:09.801Z,100560.81
2023-03-04T18:39:37.581Z,100553.03
2023-03-04T18:42:07.289Z,100547.06
2023-03-04T18:44:34.945Z,100548.81
2023-03-04T18:47:04.012Z,100543.59
2023-03-04T18:49:31.780Z,100548.00
2023-03-04T18:51:59.456Z,100545.47
2023-03-04T18:54:27.211Z,100551.59
2023-03-04T18:56:57.850Z,100546.50
2023-03-04T18:59:27.893Z,100552.59
2023-03-04T19:01:55.832Z,100550.84
2023-03-04T19:04:27.976Z,100551.75
2023-03-04T19:06:55.919Z,100551.78
2023-03-04T19:09:23.569Z,100549.13
2023-03-04T19:11:51.237Z,100549.91
2023-03-04T19:14:18.856Z,100549.13
2023-03-04T19:16:46.572Z,100547.50
2023-03-04T19:19:15.189Z,100545.03
2023-03-04T19:21:44.222Z,100541.50
2023-03-04T19:24:11.946Z,100537.97
2023-03-04T19:26:40.100Z,100542.25
2023-03-04T19:29:07.937Z,100537.03
2023-03-04T19:31:40.740Z,100532.81
2023-03-04T19:34:09.035Z,100536.34
2023-03-04T19:36:36.799Z,100534.69
2023-03-04T19:39:05.850Z,100537.34
2023-03-04T19:41:33.545Z,100536.50
2023-03-04T19:44:01.331Z,100535.69
2023-03-04T19:46:29.137Z,100531.41
2023-03-04T19:48:56.871Z,100519.44
2023-03-04T19:51:26.174Z,100519.59
2023-03-04T19:53:54.548Z,100523.00
2023-03-04T19:56:24.232Z,100517.13
2023-03-04T19:58:54.020Z,100526.47
2023-03-04T20:01:22.489Z,100518.69
2023-03-04T20:03:50.245Z,100517.13
2023-03-04T20:06:17.887Z,100516.31
2023-03-04T20:08:45.593Z,100516.44
2023-03-04T20:11:13.966Z,100513.97
2023-03-04T20:13:43.072Z,100519.19
2023-03-04T20:16:11.959Z,100513.34
2023-03-04T20:18:39.745Z,100511.63
2023-03-04T20:21:08.057Z,100516.97
2023-03-04T20:23:35.992Z,100511.88
2023-03-04T20:26:03.659Z,100518.78
2023-03-04T20:28:31.734Z,100511.22
2023-03-04T20:31:12.437Z,100515.47
2023-03-04T20:33:40.138Z,100512.13
2023-03-04T20:36:08.028Z,100513.94
2023-03-04T20:38:35.698Z,100510.63
2023-03-04T20:41:03.352Z,100501.22
2023-03-04T20:43:31.272Z,100500.53
2023-03-04T20:46:13.771Z,100498.00
2023-03-04T20:48:43.360Z,100494.69
2023-03-04T20:51:11.030Z,100496.34
2023-03-04T20:53:38.665Z,100487.06
2023-03-04T20:56:06.416Z,100499.09
2023-03-04T20:58:34.149Z,100497.53
2023-03-04T21:01:01.893Z,100482.91
2023-03-04T21:03:30.094Z,100493.34
2023-03-04T21:06:03.252Z,100492.53
2023-03-04T21:08:30.868Z,100495.16
2023-03-04T21:10:58.592Z,100504.53
2023-03-04T21:13:30.131Z,100495.09
2023-03-04T21:15:58.298Z,100496.81
2023-03-04T21:18:28.494Z,100491.72
2023-03-04T21:20:56.947Z,100495.25
2023-03-04T21:23:26.011Z,100495.25
2023-03-04T21:25:53.609Z,100495.16
2023-03-04T21:28:21.312Z,100499.44
2023-03-04T21:30:49.056Z,100491.16
2023-03-04T21:33:18.631Z,100496.97
2023-03-04T21:35:48.088Z,100485.94
2023-03-04T21:38:15.831Z,100493.50
2023-03-04T21:40:45.098Z,100489.25
2023-03-04T21:43:12.707Z,100491.72
2023-03-04T21:45:40.322Z,100492.56
2023-03-04T21:48:08.458Z,100488.34
2023-03-04T21:50:36.073Z,100482.41
2023-03-04T21:53:03.793Z,100489.19
2023-03-04T21:55:31.396Z,100483.22
2023-03-04T21:58:00.485Z,100481.59
2023-03-04T22:00:28.238Z,100485.16
2023-03-04T22:02:55.971Z,100478.41
2023-03-04T22:05:23.712Z,100483.63
2023-03-04T22:07:51.391Z,100474.34
2023-03-04T22:10:19.108Z,100483.06
2023-03-04T22:12:46.787Z,100484.88
2023-03-04T22:15:15.935Z,100481.44
2023-03-04T22:17:45.602Z,100482.38
2023-03-04T22:20:14.802Z,100484.91
2023-03-04T22:22:42.556Z,100484.06
2023-03-04T22:25:10.692Z,100485.09
2023-03-04T22:27:38.384Z,100476.53
2023-03-04T22:30:06.483Z,100473.09
2023-03-04T22:32:35.647Z,100484.28
2023-03-04T22:35:03.368Z,100470.63
2023-03-04T22:37:31.265Z,100480.94
2023-03-04T22:39:59.056Z,100480.16
2023-03-04T22:42:26.857Z,100471.63
2023-03-04T22:44:55.764Z,100468.34
2023-03-04T22:47:23.517Z,100466.72
2023-03-04T22:49:52.598Z,100469.31
2023-03-04T22:52:20.234Z,100469.31
2023-03-04T22:54:47.877Z,100464.22
2023-03-04T22:57:15.610Z,100465.94
2023-03-04T22:59:43.217Z,100467.66
2023-03-04T23:02:10.851Z,100471.13
2023-03-04T23:04:38.546Z,100460.16
2023-03-04T23:07:07.671Z,100460.25
2023-03-04T23:09:35.391Z,100461.13
2023-03-04T23:12:03.120Z,100462.16
2023-03-04T23:14:30.810Z,100453.69
2023-03-04T23:16:58.533Z,100458.84
2023-03-04T23:19:26.257Z,100453.63
2023-03-04T23:21:53.953Z,100448.75
2023-03-04T23:24:24.590Z,100449.59
2023-03-04T23:26:53.274Z,100452.03
2023-03-04T23:29:20.946Z,100445.19
2023-03-04T23:31:48.630Z,100446.22
2023-03-04T23:34:16.273Z,100449.78
2023-03-04T23:36:44.027Z,100444.69
2023-03-04T23:39:13.076Z,100439.63
2023-03-04T23:41:42.301Z,100443.97
2023-03-04T23:44:11.441Z,100436.31
2023-03-04T23:46:39.275Z,100445.03
2023-03-04T23:49:07.058Z,100446.75
2023-03-04T23:51:34.879Z,100440.75
2023-03-04T23:54:02.529Z,100448.53
2023-03-04T23:56:31.660Z,100445.06
2023-03-04T23:59:01.214Z,100435.88
